createdAt,value
2022-10-13T01:06:30.909Z,50.60
2022-10-13T01:09:36.871Z,51.50
2022-10-13T01:12:49.781Z,51.50
2022-10-13T01:15:57.053Z,51.30
2022-10-13T01:19:08.596Z,51.40
2022-10-13T01:22:20.924Z,51.20
2022-10-13T01:25:38.688Z,51.60
2022-10-13T01:28:59.389Z,51.50
2022-10-13T01:32:07.150Z,51.50
2022-10-13T01:35:13.374Z,51.50
2022-10-13T01:38:22.403Z,51.80
2022-10-13T01:41:34.059Z,51.50
2022-10-13T01:44:39.395Z,51.80
2022-10-13T01:47:42.778Z,52.10
2022-10-13T01:50:45.238Z,51.80
2022-10-13T01:53:47.072Z,52.40
2022-10-13T01:56:52.579Z,52.50
2022-10-13T01:59:54.042Z,52.60
2022-10-13T02:03:06.034Z,52.70
2022-10-13T02:06:16.907Z,52.40
2022-10-13T02:09:26.775Z,52.50
2022-10-13T02:12:34.297Z,52.50
2022-10-13T02:15:40.279Z,52.50
2022-10-13T02:18:44.159Z,52.70
2022-10-13T02:21:47.164Z,52.90
2022-10-13T02:24:48.622Z,52.90
2022-10-13T02:27:50.300Z,53.30
2022-10-13T02:30:51.789Z,53.20
2022-10-13T02:33:53.625Z,53.30
2022-10-13T02:36:54.987Z,53.50
2022-10-13T02:39:59.447Z,53.10
2022-10-13T02:43:00.979Z,53.40
2022-10-13T02:46:02.563Z,53.50
2022-10-13T02:49:04.525Z,53.60
2022-10-13T02:52:06.013Z,53.70
2022-10-13T02:55:07.794Z,53.40
2022-10-13T02:58:09.231Z,53.70
2022-10-13T03:01:11.580Z,53.70
2022-10-13T03:04:13.598Z,53.60
2022-10-13T03:07:15.359Z,53.50
2022-10-13T03:10:17.123Z,53.80
2022-10-13T03:13:18.962Z,53.80
2022-10-13T03:16:20.361Z,53.90
2022-10-13T03:19:22.219Z,54.00
2022-10-13T03:22:23.731Z,54.00
2022-10-13T03:25:26.668Z,54.20
2022-10-13T03:28:28.103Z,54.20
2022-10-13T03:31:29.890Z,54.30
2022-10-13T03:34:37.092Z,54.20
2022-10-13T03:37:38.602Z,54.30
2022-10-13T03:40:40.284Z,54.40
2022-10-13T03:43:43.286Z,54.30
2022-10-13T03:46:44.736Z,54.20
2022-10-13T03:49:46.590Z,54.60
2022-10-13T03:52:47.968Z,54.70
2022-10-13T03:55:50.209Z,54.60
2022-10-13T03:58:53.970Z,54.60
2022-10-13T04:01:55.413Z,54.60
2022-10-13T04:04:57.555Z,55.00
2022-10-13T04:07:58.977Z,55.00
2022-10-13T04:11:03.697Z,55.00
2022-10-13T04:14:05.249Z,54.80
2022-10-13T04:17:06.639Z,55.30
2022-10-13T04:20:08.929Z,55.40
2022-10-13T04:23:10.391Z,55.10
2022-10-13T04:26:18.526Z,55.00
2022-10-13T04:29:20.204Z,55.20
2022-10-13T04:32:27.095Z,55.30
2022-10-13T04:35:29.485Z,55.30
2022-10-13T04:38:30.887Z,55.60
2022-10-13T04:41:32.413Z,55.50
2022-10-13T04:44:33.941Z,55.90
2022-10-13T04:47:37.270Z,55.60
2022-10-13T04:50:39.233Z,56.00
2022-10-13T04:53:41.400Z,55.90
2022-10-13T04:56:45.599Z,56.00
2022-10-13T04:59:54.076Z,56.10
2022-10-13T05:02:55.372Z,56.00
2022-10-13T05:05:57.489Z,56.60
2022-10-13T05:08:59.720Z,56.00
2022-10-13T05:12:01.744Z,56.30
2022-10-13T05:15:03.892Z,56.60
2022-10-13T05:18:05.356Z,56.60
2022-10-13T05:21:08.794Z,56.80
2022-10-13T05:24:12.658Z,57.50
2022-10-13T05:27:15.458Z,56.60
2022-10-13T05:30:17.039Z,57.10
2022-10-13T05:33:19.191Z,57.10
2022-10-13T05:36:21.943Z,57.30
2022-10-13T05:39:23.369Z,57.20
2022-10-13T05:42:25.434Z,57.60
2022-10-13T05:45:29.157Z,57.70
2022-10-13T05:48:30.856Z,57.40
2022-10-13T05:51:37.208Z,58.00
2022-10-13T05:54:41.512Z,57.90
2022-10-13T05:57:47.399Z,58.00
2022-10-13T06:00:49.293Z,58.20
2022-10-13T06:03:53.805Z,58.30
2022-10-13T06:06:55.854Z,58.60
2022-10-13T06:09:58.375Z,58.50
2022-10-13T06:13:00.077Z,58.50
2022-10-13T06:16:01.887Z,59.50
2022-10-13T06:19:03.738Z,58.40
2022-10-13T06:22:05.956Z,58.40
2022-10-13T06:25:08.492Z,58.40
2022-10-13T06:28:09.882Z,58.50
2022-10-13T06:31:11.413Z,58.50
2022-10-13T06:34:13.128Z,58.60
2022-10-13T06:37:23.366Z,58.20
2022-10-13T06:40:27.885Z,58.20
2022-10-13T06:43:36.012Z,58.70
2022-10-13T06:46:47.240Z,58.70
2022-10-13T06:49:48.685Z,73.60
2022-10-13T06:52:51.792Z,58.90
2022-10-13T06:55:56.148Z,58.70
2022-10-13T06:58:58.086Z,58.80
2022-10-13T07:01:59.586Z,58.70
2022-10-13T07:05:01.148Z,58.80
2022-10-13T07:08:03.299Z,59.20
2022-10-13T07:11:10.512Z,59.10
2022-10-13T07:14:16.174Z,59.20
2022-10-13T07:17:18.813Z,59.30
2022-10-13T07:20:20.938Z,59.30
2022-10-13T07:23:22.975Z,59.20
2022-10-13T07:26:24.477Z,60.10
2022-10-13T07:29:27.078Z,59.50
2022-10-13T07:32:28.616Z,59.90
2022-10-13T07:35:31.001Z,59.60
2022-10-13T07:38:33.333Z,60.10
2022-10-13T07:41:35.360Z,59.80
2022-10-13T07:44:36.895Z,60.00
2022-10-13T07:47:38.605Z,60.20
2022-10-13T07:50:40.130Z,60.10
2022-10-13T07:53:42.537Z,60.00
2022-10-13T07:56:44.037Z,60.20
2022-10-13T07:59:46.432Z,60.20
2022-10-13T08:02:50.321Z,60.30
2022-10-13T08:05:52.062Z,60.10
2022-10-13T08:08:54.324Z,60.20
2022-10-13T08:12:00.589Z,60.00
2022-10-13T08:15:06.247Z,60.20
2022-10-13T08:18:08.745Z,60.00
2022-10-13T08:21:56.434Z,60.00
2022-10-13T08:24:35.581Z,59.80
2022-10-13T08:27:50.627Z,60.10
2022-10-13T08:30:53.255Z,59.80
2022-10-13T08:33:55.011Z,60.00
2022-10-13T08:36:59.003Z,59.90
2022-10-13T08:40:01.156Z,60.00
2022-10-13T08:43:06.208Z,60.30
2022-10-13T08:46:12.049Z,60.00
2022-10-13T08:49:15.012Z,60.20
2022-10-13T08:52:21.612Z,59.80
2022-10-13T08:55:29.963Z,60.10
2022-10-13T08:58:34.213Z,60.10
2022-10-13T09:01:36.773Z,60.00
2022-10-13T09:04:41.064Z,60.00
2022-10-13T09:07:46.102Z,60.00
2022-10-13T09:10:49.233Z,60.10
2022-10-13T09:13:56.129Z,60.00
2022-10-13T09:20:24.412Z,60.20
2022-10-13T09:23:26.694Z,60.10
2022-10-13T09:26:28.884Z,60.30
2022-10-13T09:29:30.743Z,60.40
2022-10-13T09:32:35.273Z,60.30
2022-10-13T09:35:38.081Z,60.30
2022-10-13T09:38:41.680Z,60.50
2022-10-13T09:41:44.019Z,60.10
2022-10-13T09:44:46.565Z,60.60
2022-10-13T09:47:51.256Z,60.40
2022-10-13T09:50:55.459Z,60.90
2022-10-13T09:53:56.869Z,60.70
2022-10-13T09:57:01.440Z,60.90
2022-10-13T10:00:13.885Z,61.00
2022-10-13T10:03:22.951Z,60.90
2022-10-13T10:06:28.882Z,61.00
2022-10-13T10:09:36.568Z,61.50
2022-10-13T10:12:41.470Z,61.70
2022-10-13T10:15:52.116Z,61.50
2022-10-13T10:19:02.659Z,61.50
2022-10-13T10:22:14.953Z,61.80
2022-10-13T10:25:29.363Z,61.80
2022-10-13T10:28:56.546Z,61.50
2022-10-13T10:32:09.212Z,61.50
2022-10-13T10:35:15.403Z,61.70
2022-10-13T10:38:27.274Z,61.80
2022-10-13T10:41:42.397Z,61.60
2022-10-13T10:44:47.718Z,62.00
2022-10-13T10:47:53.491Z,61.80
2022-10-13T10:50:57.331Z,62.00
2022-10-13T10:54:13.574Z,61.80
2022-10-13T10:57:23.902Z,61.90
2022-10-13T11:03:40.735Z,62.00
2022-10-13T11:06:42.708Z,62.00
2022-10-13T11:10:01.082Z,62.10
2022-10-13T11:17:34.369Z,61.80
2022-10-13T11:20:58.073Z,62.60
2022-10-13T11:24:02.068Z,62.70
2022-10-13T11:31:54.624Z,61.90
2022-10-13T11:35:19.210Z,62.50
2022-10-13T11:38:33.922Z,62.40
2022-10-13T11:41:44.681Z,62.50
2022-10-13T11:44:53.717Z,62.60
2022-10-13T11:48:27.634Z,62.10
2022-10-13T11:51:40.037Z,62.10
2022-10-13T11:54:49.536Z,62.10
2022-10-13T11:57:51.152Z,62.30
2022-10-13T12:00:56.028Z,62.20
2022-10-13T12:03:57.550Z,62.50
2022-10-13T12:07:02.185Z,62.10
2022-10-13T12:10:08.982Z,62.20
2022-10-13T12:13:20.395Z,62.20
2022-10-13T12:16:22.008Z,62.40
2022-10-13T12:19:27.616Z,62.60
2022-10-13T12:22:29.869Z,62.40
2022-10-13T12:25:32.850Z,62.50
2022-10-13T12:28:49.742Z,62.80
2022-10-13T12:31:51.935Z,62.70
2022-10-13T12:34:53.451Z,62.60
2022-10-13T12:38:18.196Z,63.00
2022-10-13T12:41:28.329Z,62.90
2022-10-13T12:44:32.179Z,62.90
2022-10-13T12:47:40.111Z,62.90
2022-10-13T12:50:43.011Z,62.80
2022-10-13T12:53:46.056Z,62.80
2022-10-13T12:56:52.436Z,63.50
2022-10-13T13:00:00.034Z,62.80
2022-10-13T13:03:06.770Z,62.60
2022-10-13T13:06:30.748Z,63.00
2022-10-13T13:09:33.766Z,63.10
2022-10-13T13:12:36.534Z,62.80
2022-10-13T13:15:44.084Z,62.70
2022-10-13T13:18:48.179Z,63.10
2022-10-13T13:21:50.206Z,62.50
2022-10-13T13:24:52.254Z,62.70
2022-10-13T13:27:54.352Z,62.90
2022-10-13T13:31:03.738Z,62.60
2022-10-13T13:34:09.255Z,63.00
2022-10-13T13:37:23.456Z,63.00
2022-10-13T13:40:36.101Z,63.50
2022-10-13T13:43:44.186Z,62.70
2022-10-13T13:46:48.705Z,63.20
2022-10-13T13:54:22.452Z,62.50
2022-10-13T13:57:30.692Z,63.40
2022-10-13T14:00:45.227Z,62.90
2022-10-13T14:03:49.939Z,63.90
2022-10-13T14:06:58.959Z,63.80
2022-10-13T14:10:02.347Z,62.90
2022-10-13T14:13:04.228Z,63.30
2022-10-13T14:16:06.896Z,63.50
2022-10-13T14:19:10.617Z,63.40
2022-10-13T14:22:12.991Z,63.10
2022-10-13T14:25:24.197Z,63.70
2022-10-13T14:28:41.533Z,64.10
2022-10-13T14:31:43.851Z,63.60
2022-10-13T14:34:45.429Z,63.70
2022-10-13T14:37:48.063Z,63.70
2022-10-13T14:40:50.038Z,63.70
2022-10-13T14:43:52.816Z,63.50
2022-10-13T14:46:55.269Z,63.70
2022-10-13T14:49:56.888Z,64.60
2022-10-13T14:52:58.362Z,64.10
2022-10-13T14:56:00.121Z,64.00
2022-10-13T14:59:04.344Z,64.00
2022-10-13T15:02:14.210Z,64.10
2022-10-13T15:05:26.035Z,64.00
2022-10-13T15:08:27.767Z,64.40
2022-10-13T15:11:29.200Z,64.50
2022-10-13T15:14:30.639Z,64.40
2022-10-13T15:17:36.153Z,64.60
2022-10-13T15:20:38.772Z,64.70
2022-10-13T15:23:42.293Z,64.90
2022-10-13T15:26:43.933Z,64.80
2022-10-13T15:29:45.444Z,65.00
2022-10-13T15:32:49.768Z,64.90
2022-10-13T15:35:52.770Z,65.00
2022-10-13T15:38:54.388Z,65.40
2022-10-13T15:41:55.914Z,65.10
2022-10-13T15:45:09.580Z,65.40
2022-10-13T15:48:12.856Z,65.60
2022-10-13T15:51:17.614Z,65.60
2022-10-13T15:54:47.073Z,65.70
2022-10-13T15:57:52.996Z,65.20
2022-10-13T16:00:54.453Z,65.80
2022-10-13T16:03:56.599Z,65.90
2022-10-13T16:06:58.150Z,65.90
2022-10-13T16:10:00.110Z,66.00
2022-10-13T16:13:01.569Z,66.10
2022-10-13T16:16:03.154Z,66.20
2022-10-13T16:19:05.207Z,66.40
2022-10-13T16:22:06.806Z,66.40
2022-10-13T16:25:10.231Z,66.40
2022-10-13T16:28:11.839Z,66.60
2022-10-13T16:31:20.201Z,66.70
2022-10-13T16:34:22.296Z,66.90
2022-10-13T16:37:24.201Z,66.70
2022-10-13T16:40:25.983Z,66.80
2022-10-13T16:43:29.605Z,66.90
2022-10-13T16:46:32.327Z,66.80
2022-10-13T16:49:34.478Z,66.80
2022-10-13T16:52:36.268Z,67.00
2022-10-13T16:55:39.011Z,67.30
2022-10-13T16:58:44.162Z,67.20
2022-10-13T17:01:46.473Z,67.40
2022-10-13T17:04:48.493Z,67.60
2022-10-13T17:07:51.926Z,67.40
2022-10-13T17:10:58.094Z,67.50
2022-10-13T17:14:00.717Z,67.80
2022-10-13T17:17:04.788Z,67.30
2022-10-13T17:20:12.563Z,67.40
2022-10-13T17:23:16.333Z,67.50
2022-10-13T17:26:18.512Z,67.30
2022-10-13T17:29:19.986Z,67.50
2022-10-13T17:32:21.695Z,67.50
2022-10-13T17:35:23.678Z,67.60
2022-10-13T17:38:25.348Z,67.30
2022-10-13T17:41:26.909Z,67.40
2022-10-13T17:44:28.545Z,67.40
2022-10-13T17:47:30.025Z,67.30
2022-10-13T17:50:35.139Z,67.40
2022-10-13T17:53:37.444Z,67.40
2022-10-13T17:56:41.257Z,67.20
2022-10-13T17:59:42.706Z,67.00
2022-10-13T18:02:44.571Z,67.30
2022-10-13T18:05:47.001Z,67.10
2022-10-13T18:08:50.011Z,66.90
2022-10-13T18:11:53.385Z,66.90
2022-10-13T18:14:54.944Z,67.10
2022-10-13T18:17:56.346Z,67.30
2022-10-13T18:21:01.846Z,67.20
2022-10-13T18:24:03.454Z,67.20
2022-10-13T18:27:04.937Z,67.20
2022-10-13T18:30:10.813Z,67.30
2022-10-13T18:33:12.261Z,67.20
2022-10-13T18:36:15.671Z,67.10
2022-10-13T18:39:19.315Z,67.30
2022-10-13T18:42:23.034Z,67.10
2022-10-13T18:45:24.819Z,67.20
2022-10-13T18:48:26.254Z,67.20
2022-10-13T18:51:34.842Z,67.20
2022-10-13T18:54:37.569Z,67.30
2022-10-13T18:57:39.096Z,67.40
2022-10-13T19:00:40.721Z,67.20
2022-10-13T19:03:43.283Z,67.30
2022-10-13T19:06:45.614Z,67.20
2022-10-13T19:09:47.490Z,67.10
2022-10-13T19:12:49.258Z,67.40
2022-10-13T19:15:50.861Z,67.40
2022-10-13T19:18:52.312Z,67.10
2022-10-13T19:21:54.241Z,67.20
2022-10-13T19:24:55.666Z,68.10
2022-10-13T19:28:00.784Z,67.40
2022-10-13T19:31:08.406Z,67.50
2022-10-13T19:34:11.817Z,67.70
2022-10-13T19:37:15.597Z,67.60
2022-10-13T19:40:17.137Z,67.40
2022-10-13T19:43:22.110Z,67.70
2022-10-13T19:46:23.631Z,67.50
2022-10-13T19:49:25.632Z,67.60
2022-10-13T19:52:27.612Z,67.60
2022-10-13T19:55:30.194Z,67.40
2022-10-13T19:58:32.278Z,67.80
2022-10-13T20:01:38.954Z,67.50
2022-10-13T20:04:41.435Z,68.00
2022-10-13T20:07:43.509Z,67.80
2022-10-13T20:10:45.472Z,67.80
2022-10-13T20:13:47.704Z,67.70
2022-10-13T20:16:49.143Z,68.00
2022-10-13T20:19:50.746Z,68.20
2022-10-13T20:22:52.848Z,68.00
2022-10-13T20:25:54.266Z,68.70
2022-10-13T20:28:57.269Z,68.10
2022-10-13T20:31:58.763Z,68.10
2022-10-13T20:35:00.360Z,68.20
2022-10-13T20:38:02.401Z,68.30
2022-10-13T20:41:05.862Z,68.10
2022-10-13T20:44:08.734Z,68.10
2022-10-13T20:47:10.156Z,68.20
2022-10-13T20:50:11.545Z,68.30
2022-10-13T20:53:13.568Z,68.50
2022-10-13T20:56:18.450Z,68.10
2022-10-13T20:59:19.863Z,68.00
2022-10-13T21:02:21.143Z,68.30
2022-10-13T21:05:26.983Z,68.50
2022-10-13T21:08:29.574Z,68.30
2022-10-13T21:11:31.137Z,68.10
2022-10-13T21:14:32.703Z,68.00
2022-10-13T21:17:34.357Z,68.30
2022-10-13T21:20:38.391Z,68.10
2022-10-13T21:23:40.410Z,68.30
2022-10-13T21:26:41.893Z,68.10
2022-10-13T21:29:47.952Z,68.10
2022-10-13T21:32:49.298Z,68.50
2022-10-13T21:35:53.991Z,67.80
2022-10-13T21:38:59.238Z,67.70
2022-10-13T21:42:03.768Z,67.60
2022-10-13T21:45:06.259Z,67.80
2022-10-13T21:48:07.700Z,67.20
2022-10-13T21:51:12.616Z,67.60
2022-10-13T21:54:14.823Z,67.20
2022-10-13T21:57:16.486Z,67.40
2022-10-13T22:00:18.195Z,67.20
2022-10-13T22:03:19.866Z,67.30
2022-10-13T22:06:22.482Z,67.20
2022-10-13T22:09:24.989Z,66.90
2022-10-13T22:12:30.151Z,66.90
2022-10-13T22:15:33.748Z,66.80
2022-10-13T22:18:35.506Z,66.90
2022-10-13T22:21:39.554Z,66.90
2022-10-13T22:24:41.642Z,66.70
2022-10-13T22:27:43.166Z,66.60
2022-10-13T22:30:44.570Z,66.70
2022-10-13T22:33:48.009Z,66.60
2022-10-13T22:36:50.030Z,66.70
2022-10-13T22:39:52.021Z,66.10
2022-10-13T22:42:56.572Z,66.20
2022-10-13T22:45:58.534Z,66.50
2022-10-13T22:49:00.694Z,66.20
2022-10-13T22:52:02.105Z,66.20
2022-10-13T22:55:04.167Z,66.10
2022-10-13T22:58:06.661Z,66.30
2022-10-13T23:01:10.151Z,66.20
2022-10-13T23:04:11.591Z,66.00
2022-10-13T23:07:12.952Z,66.30
2022-10-13T23:10:15.070Z,66.60
2022-10-13T23:13:16.985Z,66.10
2022-10-13T23:16:25.459Z,65.90
2022-10-13T23:19:27.118Z,66.00
2022-10-13T23:22:28.888Z,66.00
2022-10-13T23:25:33.307Z,66.10
2022-10-13T23:28:35.405Z,66.00
2022-10-13T23:31:37.082Z,65.90
2022-10-13T23:34:38.636Z,65.80
2022-10-13T23:37:42.066Z,66.10
2022-10-13T23:40:44.069Z,66.00
2022-10-13T23:43:45.937Z,65.80
2022-10-13T23:46:47.478Z,65.80
2022-10-13T23:49:50.896Z,80.70
2022-10-13T23:52:52.341Z,65.60
2022-10-13T23:55:54.163Z,65.90
2022-10-13T23:59:03.068Z,65.50
